createdAt,value
2022-08-22T00:00:18.577Z,3.50
2022-08-22T00:02:58.276Z,4.90
2022-08-22T00:06:23.733Z,3.50
2022-08-22T00:09:17.704Z,4.30
2022-08-22T00:11:49.475Z,3.90
2022-08-22T00:14:46.937Z,3.90
2022-08-22T00:17:25.032Z,4.80
2022-08-22T00:20:28.187Z,4.40
2022-08-22T00:23:07.267Z,4.30
2022-08-22T00:25:51.205Z,3.70
2022-08-22T00:28:33.018Z,4.00
2022-08-22T00:31:24.708Z,4.50
2022-08-22T00:34:03.235Z,3.50
2022-08-22T00:36:54.888Z,3.20
2022-08-22T00:40:03.130Z,3.30
2022-08-22T00:42:51.416Z,3.50
2022-08-22T00:45:29.807Z,3.80
2022-08-22T00:48:14.588Z,3.40
2022-08-22T00:51:21.578Z,3.40
2022-08-22T00:54:17.636Z,3.00
2022-08-22T00:57:15.478Z,3.50
2022-08-22T00:59:44.883Z,3.50
2022-08-22T01:02:53.075Z,3.30
2022-08-22T01:05:58.025Z,3.10
2022-08-22T01:09:04.605Z,4.50
2022-08-22T01:11:37.490Z,3.50
2022-08-22T01:14:39.973Z,4.80
2022-08-22T01:17:35.063Z,3.40
2022-08-22T01:20:29.664Z,3.20
2022-08-22T01:23:25.283Z,3.50
2022-08-22T01:26:19.419Z,3.10
2022-08-22T01:29:10.364Z,3.70
2022-08-22T01:31:52.088Z,5.40
2022-08-22T01:34:59.143Z,4.20
2022-08-22T01:37:47.070Z,3.70
2022-08-22T01:40:54.370Z,3.30
2022-08-22T01:44:00.377Z,3.60
2022-08-22T01:46:39.422Z,4.10
2022-08-22T01:49:27.912Z,3.00
2022-08-22T01:52:08.686Z,3.30
2022-08-22T01:54:55.945Z,3.50
2022-08-22T01:57:26.803Z,3.60
2022-08-22T02:00:00.002Z,3.90
2022-08-22T02:03:07.942Z,3.50
2022-08-22T02:05:41.742Z,3.50
2022-08-22T02:08:31.171Z,3.60
2022-08-22T02:11:12.824Z,3.60
2022-08-22T02:14:02.582Z,4.70
2022-08-22T02:16:55.225Z,3.80
2022-08-22T02:19:38.456Z,3.80
2022-08-22T02:22:44.530Z,3.80
2022-08-22T02:25:25.553Z,4.30
2022-08-22T02:28:17.012Z,3.40
2022-08-22T02:30:54.416Z,3.20
2022-08-22T02:33:47.872Z,3.10
2022-08-22T02:36:31.873Z,3.00
2022-08-22T02:39:16.688Z,3.30
2022-08-22T02:41:54.553Z,4.30
2022-08-22T02:44:32.694Z,4.30
2022-08-22T02:47:21.134Z,3.10
2022-08-22T02:50:20.576Z,3.50
2022-08-22T02:52:56.016Z,3.90
2022-08-22T02:55:49.160Z,3.50
2022-08-22T02:58:39.652Z,3.90
2022-08-22T03:01:34.248Z,4.40
2022-08-22T03:04:28.735Z,3.60
2022-08-22T03:07:06.667Z,4.00
2022-08-22T03:09:48.046Z,3.40
2022-08-22T03:12:29.562Z,3.90
2022-08-22T03:15:27.482Z,4.50
2022-08-22T03:18:21.053Z,4.50
2022-08-22T03:21:19.773Z,3.20
2022-08-22T03:23:55.912Z,4.70
2022-08-22T03:26:49.474Z,4.30
2022-08-22T03:29:42.625Z,3.90
2022-08-22T03:32:23.379Z,3.70
2022-08-22T03:35:23.622Z,4.60
2022-08-22T03:37:59.511Z,4.00
2022-08-22T03:40:46.182Z,3.80
2022-08-22T03:43:51.423Z,4.40
2022-08-22T03:46:49.912Z,4.40
2022-08-22T03:49:22.962Z,4.70
2022-08-22T03:52:31.622Z,4.30
2022-08-22T03:55:30.826Z,4.00
2022-08-22T03:58:37.392Z,3.50
2022-08-22T04:01:29.232Z,4.50
2022-08-22T04:04:25.358Z,4.30
2022-08-22T04:07:32.309Z,4.20
2022-08-22T04:10:31.952Z,4.90
2022-08-22T04:13:25.312Z,4.70
2022-08-22T04:16:15.200Z,5.10
2022-08-22T04:19:02.273Z,5.30
2022-08-22T04:21:46.455Z,5.50
2022-08-22T04:24:35.123Z,7.50
2022-08-22T04:27:24.172Z,5.60
2022-08-22T04:30:17.857Z,5.90
2022-08-22T04:33:02.417Z,4.80
2022-08-22T04:36:14.513Z,5.30
2022-08-22T04:39:00.836Z,4.40
2022-08-22T04:41:37.482Z,5.00
2022-08-22T04:44:15.082Z,5.60
2022-08-22T04:46:59.533Z,3.30
2022-08-22T04:49:57.922Z,4.30
2022-08-22T04:52:58.252Z,3.60
2022-08-22T04:56:08.812Z,5.10
2022-08-22T04:59:17.220Z,4.10
2022-08-22T05:01:57.216Z,4.50
2022-08-22T05:05:13.612Z,4.50
2022-08-22T05:07:50.977Z,4.60
2022-08-22T05:10:36.545Z,3.90
2022-08-22T05:13:16.103Z,4.50
2022-08-22T05:15:53.288Z,4.70
2022-08-22T05:18:32.780Z,4.70
2022-08-22T05:21:07.701Z,4.90
2022-08-22T05:23:40.949Z,6.20
2022-08-22T05:26:13.224Z,4.60
2022-08-22T05:28:51.299Z,5.30
2022-08-22T05:31:32.705Z,4.00
2022-08-22T05:34:27.604Z,3.90
2022-08-22T05:37:19.653Z,4.80
2022-08-22T05:39:56.752Z,4.60
2022-08-22T05:42:33.680Z,4.70
2022-08-22T05:45:07.015Z,4.00
2022-08-22T05:47:48.216Z,4.00
2022-08-22T05:50:37.245Z,4.90
2022-08-22T05:53:28.442Z,4.30
2022-08-22T05:56:05.843Z,5.00
2022-08-22T05:58:43.866Z,3.60
2022-08-22T06:01:39.565Z,4.00
2022-08-22T06:04:27.193Z,4.30
2022-08-22T06:06:58.273Z,4.70
2022-08-22T06:09:35.771Z,4.40
2022-08-22T06:12:34.124Z,3.90
2022-08-22T06:15:11.976Z,4.10
2022-08-22T06:17:50.876Z,5.60
2022-08-22T06:20:32.876Z,4.90
2022-08-22T06:23:05.465Z,4.10
2022-08-22T06:25:38.433Z,5.20
2022-08-22T06:28:17.392Z,4.00
2022-08-22T06:30:49.410Z,4.00
2022-08-22T06:33:24.202Z,4.20
2022-08-22T06:36:22.802Z,4.50
2022-08-22T06:39:20.071Z,4.40
2022-08-22T06:41:58.472Z,4.30
2022-08-22T06:44:55.323Z,4.40
2022-08-22T06:47:33.853Z,5.90
2022-08-22T06:50:31.798Z,3.60
2022-08-22T06:53:18.938Z,4.50
2022-08-22T06:55:55.707Z,6.10
2022-08-22T06:58:34.265Z,4.10
2022-08-22T07:01:13.037Z,4.50
2022-08-22T07:03:52.180Z,3.80
2022-08-22T07:06:43.584Z,4.60
2022-08-22T07:09:56.045Z,4.50
2022-08-22T07:12:33.375Z,4.30
2022-08-22T07:15:21.063Z,4.70
2022-08-22T07:18:00.230Z,5.30
2022-08-22T07:20:39.230Z,4.50
2022-08-22T07:23:15.265Z,4.40
2022-08-22T07:26:23.973Z,4.80
2022-08-22T07:29:28.556Z,4.90
2022-08-22T07:32:25.985Z,4.80
2022-08-22T07:35:24.705Z,4.70
2022-08-22T07:37:57.528Z,4.00
2022-08-22T07:40:56.423Z,4.30
2022-08-22T07:43:30.045Z,4.00
2022-08-22T07:46:14.791Z,4.20
2022-08-22T07:49:09.372Z,4.70
2022-08-22T07:51:56.821Z,5.00
2022-08-22T07:54:47.831Z,4.40
2022-08-22T07:57:31.053Z,4.30
2022-08-22T08:00:02.218Z,4.20
2022-08-22T08:02:32.317Z,4.60
2022-08-22T08:05:02.905Z,4.70
2022-08-22T08:07:33.314Z,4.30
2022-08-22T08:10:13.676Z,3.90
2022-08-22T08:13:02.264Z,4.50
2022-08-22T08:15:35.636Z,4.70
2022-08-22T08:18:20.116Z,4.10
2022-08-22T08:21:00.729Z,3.80
2022-08-22T08:23:39.683Z,4.10
2022-08-22T08:26:22.027Z,4.10
2022-08-22T08:28:54.757Z,3.60
2022-08-22T08:31:32.578Z,4.20
2022-08-22T08:34:26.525Z,3.90
2022-08-22T08:37:05.515Z,3.80
2022-08-22T08:39:39.747Z,3.50
2022-08-22T08:43:00.125Z,3.50
2022-08-22T08:45:59.200Z,3.40
2022-08-22T08:48:47.606Z,4.60
2022-08-22T08:51:53.447Z,3.20
2022-08-22T08:54:56.520Z,3.20
2022-08-22T08:58:06.840Z,3.50
2022-08-22T09:00:43.744Z,3.20
2022-08-22T09:03:48.107Z,3.60
2022-08-22T09:07:08.588Z,3.60
2022-08-22T09:09:54.246Z,3.50
2022-08-22T09:12:52.218Z,3.40
2022-08-22T09:15:58.783Z,3.10
2022-08-22T09:19:06.790Z,2.90
2022-08-22T09:22:14.684Z,3.90
2022-08-22T09:25:18.551Z,3.30
2022-08-22T09:28:18.039Z,3.40
2022-08-22T09:31:02.541Z,3.40
2022-08-22T09:33:59.844Z,3.00
2022-08-22T09:36:49.082Z,3.50
2022-08-22T09:39:41.620Z,3.50
2022-08-22T09:42:23.764Z,3.40
2022-08-22T09:45:12.279Z,4.00
2022-08-22T09:48:07.640Z,4.00
2022-08-22T09:50:45.938Z,3.30
2022-08-22T09:53:40.642Z,5.10
2022-08-22T09:56:26.165Z,4.20
2022-08-22T09:59:15.217Z,3.20
2022-08-22T10:04:42.032Z,2.70
2022-08-22T10:07:33.977Z,2.80
2022-08-22T10:10:31.027Z,3.20
2022-08-22T10:13:24.334Z,2.90
2022-08-22T10:15:57.805Z,2.50
2022-08-22T10:18:53.804Z,3.10
2022-08-22T10:22:08.173Z,2.20
2022-08-22T10:24:54.109Z,2.10
2022-08-22T10:27:49.477Z,2.50
2022-08-22T10:30:43.581Z,1.70
2022-08-22T10:33:35.837Z,2.10
2022-08-22T10:36:12.096Z,1.80
2022-08-22T10:38:53.808Z,2.80
2022-08-22T10:41:49.194Z,2.20
2022-08-22T10:44:27.061Z,3.70
2022-08-22T10:47:08.813Z,2.50
2022-08-22T10:50:06.826Z,2.50
2022-08-22T10:53:28.398Z,2.50
2022-08-22T10:56:10.714Z,2.30
2022-08-22T10:58:56.854Z,2.40
2022-08-22T11:01:38.236Z,2.90
2022-08-22T11:04:37.444Z,2.60
2022-08-22T11:07:36.326Z,2.80
2022-08-22T11:10:45.893Z,2.90
2022-08-22T11:13:43.381Z,2.40
2022-08-22T11:16:28.478Z,2.80
2022-08-22T11:19:14.621Z,2.30
2022-08-22T11:21:57.461Z,2.30
2022-08-22T11:24:35.610Z,1.80
2022-08-22T11:27:35.197Z,2.40
2022-08-22T11:30:29.465Z,4.70
2022-08-22T11:33:21.968Z,2.60
2022-08-22T11:36:27.264Z,1.10
2022-08-22T11:39:23.652Z,1.90
2022-08-22T11:42:04.843Z,1.70
2022-08-22T11:44:50.282Z,2.10
2022-08-22T11:47:27.113Z,2.30
2022-08-22T11:50:13.668Z,1.40
2022-08-22T11:55:45.354Z,1.30
2022-08-22T11:58:33.006Z,2.20
2022-08-22T12:01:14.914Z,1.70
2022-08-22T12:04:19.217Z,1.70
2022-08-22T12:07:27.427Z,1.90
2022-08-22T12:10:18.341Z,1.80
2022-08-22T12:13:06.081Z,1.90
2022-08-22T12:16:06.608Z,1.30
2022-08-22T12:18:54.024Z,1.60
2022-08-22T12:22:10.329Z,1.50
2022-08-22T12:25:02.904Z,0.80
2022-08-22T12:28:04.738Z,0.70
2022-08-22T12:30:54.708Z,0.40
2022-08-22T12:33:50.430Z,0.80
2022-08-22T12:36:35.094Z,1.00
2022-08-22T12:39:13.614Z,1.00
2022-08-22T12:42:04.153Z,1.40
2022-08-22T12:45:09.974Z,1.40
2022-08-22T12:47:58.358Z,0.60
2022-08-22T12:51:17.425Z,0.50
2022-08-22T12:54:21.914Z,1.20
2022-08-22T12:57:26.534Z,2.00
2022-08-22T13:00:23.000Z,0.60
2022-08-22T13:02:55.330Z,0.70
2022-08-22T13:05:29.464Z,0.90
2022-08-22T13:08:05.816Z,0.60
2022-08-22T13:10:39.534Z,0.70
2022-08-22T13:15:56.583Z,0.60
2022-08-22T13:18:31.363Z,0.60
2022-08-22T13:21:06.329Z,0.60
2022-08-22T13:23:51.558Z,1.20
2022-08-22T13:26:33.024Z,0.90
2022-08-22T13:29:25.685Z,0.60
2022-08-22T13:32:02.330Z,0.70
2022-08-22T13:34:53.067Z,0.60
2022-08-22T13:37:30.077Z,0.60
2022-08-22T13:40:14.814Z,0.30
2022-08-22T13:42:48.178Z,0.80
2022-08-22T13:45:25.527Z,0.40
2022-08-22T13:48:03.507Z,0.30
2022-08-22T13:50:53.885Z,0.60
2022-08-22T13:53:49.888Z,0.20
2022-08-22T13:56:34.630Z,0.60
2022-08-22T13:59:07.952Z,0.60
2022-08-22T14:01:57.538Z,0.60
2022-08-22T14:04:33.544Z,1.40
2022-08-22T14:07:06.404Z,1.20
2022-08-22T14:09:49.118Z,1.40
2022-08-22T14:12:33.647Z,0.50
2022-08-22T14:15:32.470Z,0.60
2022-08-22T14:18:20.939Z,0.40
2022-08-22T14:21:18.713Z,0.70
2022-08-22T14:23:53.356Z,0.20
2022-08-22T14:26:49.973Z,0.60
2022-08-22T14:29:21.038Z,0.50
2022-08-22T14:32:06.491Z,0.60
2022-08-22T14:34:45.479Z,0.50
2022-08-22T14:37:33.063Z,1.30
2022-08-22T14:40:13.402Z,1.20
2022-08-22T14:42:50.674Z,0.70
2022-08-22T14:45:25.451Z,0.50
2022-08-22T14:48:31.672Z,0.70
2022-08-22T14:50:55.651Z,0.70
2022-08-22T14:53:32.442Z,1.30
2022-08-22T14:56:11.011Z,1.40
2022-08-22T14:59:00.475Z,1.20
2022-08-22T15:01:34.160Z,1.20
2022-08-22T15:04:10.805Z,0.80
2022-08-22T15:06:53.455Z,0.40
2022-08-22T15:09:33.830Z,1.20
2022-08-22T15:12:10.481Z,0.80
2022-08-22T15:14:40.366Z,0.70
2022-08-22T15:17:12.154Z,2.00
2022-08-22T15:19:44.802Z,0.10
2022-08-22T15:22:27.709Z,0.20
2022-08-22T15:25:27.962Z,1.20
2022-08-22T15:28:14.142Z,1.50
2022-08-22T15:31:08.032Z,1.20
2022-08-22T15:33:43.245Z,0.80
2022-08-22T15:36:15.787Z,1.30
2022-08-22T15:38:50.230Z,0.60
2022-08-22T15:41:36.636Z,0.90
2022-08-22T15:44:36.169Z,1.00
2022-08-22T15:47:38.764Z,1.20
2022-08-22T15:50:32.744Z,0.70
2022-08-22T15:53:23.445Z,0.80
2022-08-22T15:56:12.962Z,0.80
2022-08-22T15:58:49.750Z,0.20
2022-08-22T16:01:25.333Z,1.70
2022-08-22T16:03:59.957Z,0.40
2022-08-22T16:06:50.842Z,0.30
2022-08-22T16:09:37.902Z,0.80
2022-08-22T16:12:27.153Z,1.10
2022-08-22T16:14:56.343Z,0.70
2022-08-22T16:17:31.600Z,0.40
2022-08-22T16:20:19.229Z,1.30
2022-08-22T16:22:59.655Z,1.90
2022-08-22T16:25:48.152Z,1.10
2022-08-22T16:28:56.421Z,1.20
2022-08-22T16:31:27.955Z,2.50
2022-08-22T16:34:17.490Z,2.20
2022-08-22T16:37:14.166Z,2.30
2022-08-22T16:39:47.750Z,1.90
2022-08-22T16:42:19.915Z,1.70
2022-08-22T16:44:56.245Z,3.30
2022-08-22T16:47:34.293Z,1.80
2022-08-22T16:50:18.958Z,3.20
2022-08-22T16:52:56.647Z,1.50
2022-08-22T16:55:31.817Z,1.50
2022-08-22T16:58:44.989Z,1.70
2022-08-22T17:01:26.637Z,2.10
2022-08-22T17:04:11.952Z,3.30
2022-08-22T17:07:05.728Z,2.70
2022-08-22T17:09:56.312Z,1.60
2022-08-22T17:12:33.703Z,2.10
2022-08-22T17:15:10.189Z,1.70
2022-08-22T17:17:54.869Z,1.70
2022-08-22T17:20:44.623Z,1.60
2022-08-22T17:23:32.862Z,1.70
2022-08-22T17:26:20.991Z,1.50
2022-08-22T17:29:19.692Z,2.10
2022-08-22T17:32:17.812Z,1.40
2022-08-22T17:34:56.396Z,1.70
2022-08-22T17:37:50.986Z,1.20
2022-08-22T17:40:26.303Z,1.60
2022-08-22T17:43:11.285Z,1.70
2022-08-22T17:46:13.652Z,1.40
2022-08-22T17:48:54.335Z,0.80
2022-08-22T17:51:45.266Z,2.20
2022-08-22T17:54:36.152Z,1.50
2022-08-22T17:57:09.442Z,1.50
2022-08-22T17:59:53.603Z,1.40
2022-08-22T18:03:01.051Z,1.60
2022-08-22T18:05:37.111Z,0.50
2022-08-22T18:11:31.872Z,1.90
2022-08-22T18:14:37.057Z,1.70
2022-08-22T18:17:26.914Z,1.50
2022-08-22T18:20:08.506Z,1.50
2022-08-22T18:22:44.774Z,1.30
2022-08-22T18:25:20.378Z,1.60
2022-08-22T18:28:04.198Z,0.80
2022-08-22T18:31:03.114Z,0.40
2022-08-22T18:34:08.680Z,0.30
2022-08-22T18:36:55.442Z,0.70
2022-08-22T18:39:42.607Z,0.50
2022-08-22T18:42:29.114Z,0.90
2022-08-22T18:44:58.697Z,1.40
2022-08-22T18:47:34.975Z,1.30
2022-08-22T18:50:31.024Z,1.20
2022-08-22T18:53:00.811Z,0.90
2022-08-22T18:56:13.973Z,0.80
2022-08-22T18:59:05.607Z,2.80
2022-08-22T19:01:44.452Z,1.00
2022-08-22T19:04:54.745Z,1.20
2022-08-22T19:07:26.904Z,1.60
2022-08-22T19:09:56.315Z,0.90
2022-08-22T19:12:33.401Z,1.30
2022-08-22T19:15:27.102Z,0.70
2022-08-22T19:18:23.857Z,1.70
2022-08-22T19:21:37.975Z,1.60
2022-08-22T19:24:32.346Z,1.10
2022-08-22T19:27:20.318Z,1.50
2022-08-22T19:29:49.778Z,1.30
2022-08-22T19:32:44.626Z,1.60
2022-08-22T19:35:28.129Z,1.50
2022-08-22T19:38:03.083Z,1.60
2022-08-22T19:40:58.692Z,1.90
2022-08-22T19:43:37.571Z,1.30
2022-08-22T19:46:13.292Z,1.70
2022-08-22T19:48:50.539Z,2.30
2022-08-22T19:51:22.717Z,2.00
2022-08-22T19:54:19.143Z,3.00
2022-08-22T19:57:10.214Z,2.10
2022-08-22T20:00:13.052Z,3.00
2022-08-22T20:02:51.793Z,2.60
2022-08-22T20:05:25.905Z,3.60
2022-08-22T20:10:53.974Z,2.40
2022-08-22T20:13:35.257Z,3.00
2022-08-22T20:16:14.337Z,2.50
2022-08-22T20:19:08.239Z,2.40
2022-08-22T20:21:45.549Z,2.50
2022-08-22T20:24:41.265Z,2.30
2022-08-22T20:27:23.666Z,2.70
2022-08-22T20:30:05.058Z,2.70
2022-08-22T20:32:42.438Z,2.50
2022-08-22T20:35:36.594Z,2.40
2022-08-22T20:38:10.162Z,2.80
2022-08-22T20:40:57.560Z,2.60
2022-08-22T20:43:35.509Z,2.90
2022-08-22T20:46:27.285Z,2.20
2022-08-22T20:48:57.632Z,2.80
2022-08-22T20:51:30.179Z,1.90
2022-08-22T20:54:18.967Z,3.40
2022-08-22T20:56:53.957Z,2.40
2022-08-22T20:59:50.255Z,3.30
2022-08-22T21:02:42.089Z,2.60
2022-08-22T21:05:14.731Z,2.50
2022-08-22T21:07:47.690Z,2.90
2022-08-22T21:10:43.926Z,2.70
2022-08-22T21:13:27.926Z,3.30
2022-08-22T21:15:59.977Z,3.00
2022-08-22T21:18:36.244Z,2.80
2022-08-22T21:21:17.478Z,2.90
2022-08-22T21:23:50.536Z,2.50
2022-08-22T21:26:37.756Z,4.00
2022-08-22T21:29:24.008Z,3.00
2022-08-22T21:32:04.411Z,2.80
2022-08-22T21:34:46.838Z,2.80
2022-08-22T21:37:22.055Z,3.10
2022-08-22T21:40:00.863Z,2.90
2022-08-22T21:42:41.736Z,2.70
2022-08-22T21:45:26.528Z,2.80
2022-08-22T21:47:56.047Z,3.20
2022-08-22T21:50:35.405Z,4.00
2022-08-22T21:53:11.948Z,2.90
2022-08-22T21:55:48.533Z,3.40
2022-08-22T21:58:35.531Z,3.20
2022-08-22T22:01:29.084Z,3.00
2022-08-22T22:04:00.005Z,2.60
2022-08-22T22:06:29.161Z,3.40
2022-08-22T22:08:58.451Z,4.00
2022-08-22T22:11:27.564Z,3.00
2022-08-22T22:13:56.816Z,2.90
2022-08-22T22:16:28.359Z,3.00
2022-08-22T22:18:58.047Z,3.00
2022-08-22T22:21:28.572Z,3.20
2022-08-22T22:23:58.673Z,3.20
2022-08-22T22:26:29.453Z,4.00
2022-08-22T22:28:59.887Z,3.70
2022-08-22T22:31:29.647Z,3.50
2022-08-22T22:33:59.912Z,3.00
2022-08-22T22:36:29.445Z,3.20
2022-08-22T22:38:58.472Z,3.60
2022-08-22T22:41:28.076Z,2.90
2022-08-22T22:43:57.893Z,2.50
2022-08-22T22:46:27.810Z,2.80
2022-08-22T22:48:58.497Z,3.30
2022-08-22T22:51:27.636Z,2.70
2022-08-22T22:53:57.674Z,2.60
2022-08-22T22:56:26.844Z,3.00
2022-08-22T22:59:00.683Z,3.00
2022-08-22T23:02:07.134Z,2.90
2022-08-22T23:04:38.762Z,3.30
2022-08-22T23:07:09.464Z,3.10
2022-08-22T23:09:44.785Z,3.30
2022-08-22T23:12:15.974Z,3.40
2022-08-22T23:14:45.232Z,3.50
2022-08-22T23:17:14.936Z,3.50
2022-08-22T23:19:46.314Z,3.40
2022-08-22T23:22:17.495Z,3.60
2022-08-22T23:24:46.805Z,3.30
2022-08-22T23:27:16.093Z,3.40
2022-08-22T23:29:45.393Z,3.90
2022-08-22T23:32:15.408Z,2.90
2022-08-22T23:34:47.795Z,3.30
2022-08-22T23:37:20.406Z,3.20
2022-08-22T23:39:50.134Z,3.40
2022-08-22T23:42:20.125Z,4.40
2022-08-22T23:44:49.491Z,2.90
2022-08-22T23:47:18.932Z,3.60
2022-08-22T23:49:48.133Z,5.50
2022-08-22T23:52:17.754Z,3.00
2022-08-22T23:54:46.922Z,3.20
2022-08-22T23:57:26.510Z,3.40
2022-08-22T23:59:58.577Z,3.30
